Time;durP1;ratioP1;P1;durP2;ratioP2;P2;SDS_P1;SDS_P2;PMS_P1;PMS_P2;Temp;Humidity;BMP_temperature;BMP_pressure;BME280_temperature;BME280_humidity;BME280_pressure;Samples;Min_cycle;Max_cycle;Signal;HPM_P1;HPM_P2
2023/04/09 00:00:30;;;;;;;;;;;8.00;99.90;;;;;;5089492;28;19932;-83
2023/04/09 00:02:56;;;;;;;;;;;8.00;99.90;;;;;;5078561;28;19924;-83
2023/04/09 00:05:23;;;;;;;;;;;7.90;99.90;;;;;;5094480;28;20338;-81
2023/04/09 00:07:50;;;;;;;;;;;7.80;99.90;;;;;;5088746;28;19928;-81
2023/04/09 00:10:17;;;;;;;;;;;7.80;99.90;;;;;;5077363;28;19924;-81
2023/04/09 00:12:45;;;;;;;;;;;7.80;99.90;;;;;;5077630;28;20537;-81
2023/04/09 00:15:12;;;;;;;;;;;7.70;99.90;;;;;;5078052;28;19932;-80
2023/04/09 00:17:40;;;;;;;;;;;7.70;99.90;;;;;;5095684;28;19928;-80
2023/04/09 00:20:07;;;;;;;;;;;7.60;99.90;;;;;;5107095;28;19928;-80
2023/04/09 00:22:34;;;;;;;;;;;7.50;99.90;;;;;;5097139;28;19959;-81
2023/04/09 00:25:01;;;;;;;;;;;7.50;99.90;;;;;;5096864;28;20019;-79
2023/04/09 00:27:28;;;;;;;;;;;7.50;99.90;;;;;;5077217;28;19928;-82
2023/04/09 00:29:57;;;;;;;;;;;7.50;99.90;;;;;;5084412;28;19931;-81
2023/04/09 00:32:23;;;;;;;;;;;7.50;99.90;;;;;;5097506;28;20537;-82
2023/04/09 00:34:51;;;;;;;;;;;7.40;99.90;;;;;;5089088;28;19954;-82
2023/04/09 00:37:18;;;;;;;;;;;7.40;99.90;;;;;;5083098;28;20463;-80
2023/04/09 00:39:49;;;;;;;;;;;7.40;99.90;;;;;;5091076;28;20031;-81
2023/04/09 00:42:16;;;;;;;;;;;7.30;99.90;;;;;;5077862;28;19935;-83
2023/04/09 00:44:43;;;;;;;;;;;7.30;99.90;;;;;;5080091;28;20379;-84
2023/04/09 00:47:12;;;;;;;;;;;7.30;99.90;;;;;;5079192;28;20452;-85
2023/04/09 00:49:39;;;;;;;;;;;7.20;99.90;;;;;;5078150;28;20372;-85
2023/04/09 00:52:07;;;;;;;;;;;7.20;99.90;;;;;;5077946;28;20015;-85
2023/04/09 00:54:34;;;;;;;;;;;7.10;99.90;;;;;;5061134;28;20140;-84
2023/04/09 00:57:01;;;;;;;;;;;7.10;99.90;;;;;;5084397;28;19928;-84
2023/04/09 00:59:28;;;;;;;;;;;7.10;99.90;;;;;;5078204;28;19931;-84
2023/04/09 01:01:55;;;;;;;;;;;7.00;99.90;;;;;;5068512;28;20011;-84
2023/04/09 01:04:24;;;;;;;;;;;7.00;99.90;;;;;;5084169;28;19928;-85
2023/04/09 01:06:52;;;;;;;;;;;7.00;99.90;;;;;;5074921;28;20027;-84
2023/04/09 01:09:23;;;;;;;;;;;7.00;99.90;;;;;;5078441;28;19978;-84
2023/04/09 01:11:55;;;;;;;;;;;6.90;99.90;;;;;;5079850;28;20319;-84
2023/04/09 01:14:25;;;;;;;;;;;6.80;99.90;;;;;;5078817;28;20052;-83
2023/04/09 01:16:57;;;;;;;;;;;6.80;99.90;;;;;;5094598;28;19981;-84
2023/04/09 01:19:34;;;;;;;;;;;6.70;99.90;;;;;;5098454;28;19955;-83
2023/04/09 01:22:04;;;;;;;;;;;6.70;99.90;;;;;;5113031;28;19924;-83
2023/04/09 01:24:36;;;;;;;;;;;6.70;99.90;;;;;;5074111;28;19950;-82
2023/04/09 01:27:06;;;;;;;;;;;6.70;99.90;;;;;;5086984;28;19954;-82
2023/04/09 01:29:51;;;;;;;;;;;6.60;99.90;;;;;;5071225;28;19991;-81
2023/04/09 01:32:19;;;;;;;;;;;6.60;99.90;;;;;;5075044;28;19968;-81
2023/04/09 01:34:47;;;;;;;;;;;6.50;99.90;;;;;;5091828;28;19928;-81
2023/04/09 01:37:15;;;;;;;;;;;6.50;99.90;;;;;;5076794;28;19935;-80
2023/04/09 01:39:42;;;;;;;;;;;6.50;99.90;;;;;;5076290;28;20367;-80
2023/04/09 01:42:11;;;;;;;;;;;6.50;99.90;;;;;;5088726;28;19928;-80
2023/04/09 01:44:39;;;;;;;;;;;6.40;99.90;;;;;;5082663;28;19923;-80
2023/04/09 01:47:08;;;;;;;;;;;6.40;99.90;;;;;;5099023;28;19928;-81
2023/04/09 01:49:35;;;;;;;;;;;6.30;99.90;;;;;;5080683;28;19928;-80
2023/04/09 01:52:02;;;;;;;;;;;6.30;99.90;;;;;;5093936;28;19927;-80
2023/04/09 01:54:29;;;;;;;;;;;6.30;99.90;;;;;;5067488;28;19930;-81
2023/04/09 01:56:57;;;;;;;;;;;6.30;99.90;;;;;;5087362;28;19939;-80
2023/04/09 01:59:24;;;;;;;;;;;6.30;99.90;;;;;;5072857;28;19931;-80
2023/04/09 02:01:53;;;;;;;;;;;6.30;99.90;;;;;;5092128;28;19989;-81
2023/04/09 02:04:24;;;;;;;;;;;6.20;99.90;;;;;;5100359;28;19935;-80
2023/04/09 02:06:53;;;;;;;;;;;6.20;99.90;;;;;;5080082;28;20027;-81
2023/04/09 02:09:21;;;;;;;;;;;6.10;99.90;;;;;;5079345;28;19967;-81
2023/04/09 02:11:49;;;;;;;;;;;6.10;99.90;;;;;;5076051;28;19924;-80
2023/04/09 02:14:18;;;;;;;;;;;6.10;99.90;;;;;;5082792;28;19924;-81
2023/04/09 02:16:48;;;;;;;;;;;6.00;99.90;;;;;;5086718;28;19928;-81
2023/04/09 02:19:15;;;;;;;;;;;6.00;99.90;;;;;;5067597;28;20003;-80
2023/04/09 02:21:44;;;;;;;;;;;6.00;99.90;;;;;;5075081;28;19923;-81
2023/04/09 02:24:11;;;;;;;;;;;5.90;99.90;;;;;;5090285;28;19935;-81
2023/04/09 02:26:38;;;;;;;;;;;5.90;99.90;;;;;;5077611;28;19928;-81
2023/04/09 02:29:05;;;;;;;;;;;5.80;99.90;;;;;;5107460;28;20109;-81
2023/04/09 02:31:31;;;;;;;;;;;5.80;99.90;;;;;;5077485;28;20027;-80
2023/04/09 02:33:58;;;;;;;;;;;5.80;99.90;;;;;;5082907;28;19924;-81
2023/04/09 02:36:26;;;;;;;;;;;5.80;99.90;;;;;;5085563;28;20418;-80
2023/04/09 02:38:54;;;;;;;;;;;5.70;99.90;;;;;;5086264;28;19988;-80
2023/04/09 02:41:21;;;;;;;;;;;5.70;99.90;;;;;;5080968;28;19943;-81
2023/04/09 02:43:48;;;;;;;;;;;5.70;99.90;;;;;;5066613;28;19928;-81
2023/04/09 02:46:15;;;;;;;;;;;5.60;99.90;;;;;;5075490;28;20378;-80
2023/04/09 02:48:42;;;;;;;;;;;5.60;99.90;;;;;;5101815;28;19997;-81
2023/04/09 02:51:11;;;;;;;;;;;5.50;99.90;;;;;;5097955;28;19978;-80
2023/04/09 02:53:39;;;;;;;;;;;5.50;99.90;;;;;;5108133;28;19932;-81
2023/04/09 02:56:08;;;;;;;;;;;5.40;99.90;;;;;;5082000;28;20395;-81
2023/04/09 02:58:35;;;;;;;;;;;5.40;99.90;;;;;;5091704;28;19930;-81
2023/04/09 03:01:02;;;;;;;;;;;5.30;99.90;;;;;;5089861;28;19963;-81
2023/04/09 03:03:29;;;;;;;;;;;5.20;99.90;;;;;;5075851;28;19971;-80
2023/04/09 03:05:56;;;;;;;;;;;5.20;99.90;;;;;;5077907;28;20337;-79
2023/04/09 03:08:23;;;;;;;;;;;5.10;99.90;;;;;;5106373;28;19924;-80
2023/04/09 03:10:50;;;;;;;;;;;5.10;99.90;;;;;;5098389;28;19944;-80
2023/04/09 03:13:18;;;;;;;;;;;5.10;99.90;;;;;;5098384;28;19931;-81
2023/04/09 03:15:46;;;;;;;;;;;5.00;99.90;;;;;;5080203;28;19924;-81
2023/04/09 03:18:12;;;;;;;;;;;5.00;99.90;;;;;;5105567;28;20414;-81
2023/04/09 03:20:39;;;;;;;;;;;5.00;99.90;;;;;;5081198;28;19928;-81
2023/04/09 03:23:10;;;;;;;;;;;5.00;99.90;;;;;;5076737;28;19943;-81
2023/04/09 03:25:41;;;;;;;;;;;4.90;99.90;;;;;;5087791;28;20010;-81
2023/04/09 03:28:14;;;;;;;;;;;4.90;99.90;;;;;;5094270;28;19980;-81
2023/04/09 03:30:46;;;;;;;;;;;4.80;99.90;;;;;;5082486;28;19967;-80
2023/04/09 03:33:14;;;;;;;;;;;4.80;99.90;;;;;;5082939;28;19942;-80
2023/04/09 03:35:50;;;;;;;;;;;4.70;99.90;;;;;;5097126;28;19928;-80
2023/04/09 03:38:22;;;;;;;;;;;4.60;99.90;;;;;;5069956;28;19935;-81
2023/04/09 03:40:49;;;;;;;;;;;4.60;99.90;;;;;;5088471;28;20543;-80
2023/04/09 03:43:16;;;;;;;;;;;4.60;99.90;;;;;;5075042;28;20642;-81
2023/04/09 03:45:53;;;;;;;;;;;4.50;99.90;;;;;;5078508;28;19928;-81
2023/04/09 03:48:26;;;;;;;;;;;4.50;99.90;;;;;;5092251;28;19934;-81
2023/04/09 03:50:55;;;;;;;;;;;4.40;99.90;;;;;;5078189;28;19932;-81
2023/04/09 03:53:30;;;;;;;;;;;4.50;99.90;;;;;;5095958;28;19928;-81
2023/04/09 03:56:02;;;;;;;;;;;4.40;99.90;;;;;;5086445;28;19955;-81
2023/04/09 03:58:30;;;;;;;;;;;4.40;99.90;;;;;;5090224;28;19928;-81
2023/04/09 04:00:59;;;;;;;;;;;4.40;99.90;;;;;;5093604;28;20015;-81
2023/04/09 04:03:35;;;;;;;;;;;4.30;99.90;;;;;;5073994;28;20026;-81
2023/04/09 04:06:26;;;;;;;;;;;4.30;99.90;;;;;;5105997;28;19935;-81
2023/04/09 04:09:05;;;;;;;;;;;4.30;99.90;;;;;;5080586;28;20425;-80
2023/04/09 04:11:42;;;;;;;;;;;4.30;99.90;;;;;;5078591;28;19933;-81
2023/04/09 04:14:10;;;;;;;;;;;4.30;99.90;;;;;;5092390;28;19927;-81
2023/04/09 04:16:41;;;;;;;;;;;4.30;99.90;;;;;;5085458;28;20376;-81
2023/04/09 04:19:09;;;;;;;;;;;4.20;99.90;;;;;;5066184;28;20018;-80
2023/04/09 04:21:42;;;;;;;;;;;4.20;99.90;;;;;;5079732;28;19929;-80
2023/04/09 04:24:10;;;;;;;;;;;4.10;99.90;;;;;;5087914;28;19931;-80
2023/04/09 04:26:37;;;;;;;;;;;4.00;99.90;;;;;;5115463;28;19928;-81
2023/04/09 04:29:05;;;;;;;;;;;4.00;99.90;;;;;;5102995;28;19935;-80
2023/04/09 04:31:50;;;;;;;;;;;4.00;99.90;;;;;;5084913;28;19946;-80
2023/04/09 04:34:20;;;;;;;;;;;4.00;99.90;;;;;;5084295;28;19928;-79
2023/04/09 04:36:54;;;;;;;;;;;3.90;99.90;;;;;;5075005;28;20020;-79
2023/04/09 04:39:21;;;;;;;;;;;3.90;99.90;;;;;;5080227;28;19928;-79
2023/04/09 04:42:00;;;;;;;;;;;3.90;99.90;;;;;;5069920;28;19977;-79
2023/04/09 04:44:28;;;;;;;;;;;3.90;99.90;;;;;;5067092;28;19928;-79
2023/04/09 04:47:08;;;;;;;;;;;3.90;99.90;;;;;;5090442;28;19923;-79
2023/04/09 04:49:35;;;;;;;;;;;4.00;99.90;;;;;;5089313;28;19947;-80
2023/04/09 04:52:04;;;;;;;;;;;4.00;99.90;;;;;;5095518;28;19939;-79
2023/04/09 04:54:33;;;;;;;;;;;4.10;99.90;;;;;;5100008;28;19954;-79
2023/04/09 04:57:01;;;;;;;;;;;4.10;99.90;;;;;;5098547;28;19927;-80
2023/04/09 04:59:41;;;;;;;;;;;4.10;99.90;;;;;;5097305;28;20555;-79
2023/04/09 05:02:15;;;;;;;;;;;4.20;99.90;;;;;;5089761;28;19928;-80
2023/04/09 05:05:08;;;;;;;;;;;4.20;99.90;;;;;;5092448;28;19927;-81
2023/04/09 05:07:40;;;;;;;;;;;4.20;99.90;;;;;;5079044;28;20025;-79
2023/04/09 05:10:08;;;;;;;;;;;4.30;99.90;;;;;;5095178;28;19928;-79
2023/04/09 05:12:40;;;;;;;;;;;4.30;99.90;;;;;;5079567;28;20673;-81
2023/04/09 05:15:08;;;;;;;;;;;4.40;99.90;;;;;;5080769;28;19934;-79
2023/04/09 05:17:38;;;;;;;;;;;4.30;99.90;;;;;;5077210;28;19924;-80
2023/04/09 05:20:07;;;;;;;;;;;4.30;99.90;;;;;;5091404;28;20011;-79
2023/04/09 05:22:45;;;;;;;;;;;4.40;99.90;;;;;;5079743;28;19987;-80
2023/04/09 05:25:14;;;;;;;;;;;4.50;99.90;;;;;;5081445;28;19982;-79
2023/04/09 05:27:42;;;;;;;;;;;4.50;99.90;;;;;;5087695;28;20391;-78
2023/04/09 05:30:11;;;;;;;;;;;4.60;99.90;;;;;;5079893;28;19928;-79
2023/04/09 05:32:40;;;;;;;;;;;4.70;99.90;;;;;;5078901;28;20461;-78
2023/04/09 05:35:07;;;;;;;;;;;4.80;99.90;;;;;;5083092;28;19999;-78
2023/04/09 05:37:40;;;;;;;;;;;4.90;99.90;;;;;;5073556;28;19935;-79
2023/04/09 05:40:07;;;;;;;;;;;5.00;99.90;;;;;;5073916;28;20238;-77
2023/04/09 05:42:34;;;;;;;;;;;5.30;99.90;;;;;;5072413;28;19975;-78
2023/04/09 05:45:11;;;;;;;;;;;5.90;99.90;;;;;;5077350;28;19928;-78
2023/04/09 05:47:47;;;;;;;;;;;6.60;99.90;;;;;;5081153;28;20436;-78
2023/04/09 05:50:18;;;;;;;;;;;7.40;99.90;;;;;;5079800;28;20302;-79
2023/04/09 05:52:45;;;;;;;;;;;8.00;99.90;;;;;;5098534;28;19928;-79
2023/04/09 05:55:14;;;;;;;;;;;8.80;99.90;;;;;;5094274;28;19928;-79
2023/04/09 05:57:53;;;;;;;;;;;9.40;99.90;;;;;;5082023;28;19966;-79
2023/04/09 06:00:20;;;;;;;;;;;10.20;99.90;;;;;;5082536;28;19928;-79
2023/04/09 06:02:50;;;;;;;;;;;10.90;99.90;;;;;;5088328;28;19928;-81
2023/04/09 06:05:17;;;;;;;;;;;11.60;99.90;;;;;;5080298;28;19932;-80
2023/04/09 06:07:47;;;;;;;;;;;12.30;99.90;;;;;;5084922;28;19924;-80
2023/04/09 06:10:14;;;;;;;;;;;12.90;99.90;;;;;;5087797;28;19951;-80
2023/04/09 06:12:41;;;;;;;;;;;13.50;99.90;;;;;;5080803;28;19991;-81
2023/04/09 06:15:09;;;;;;;;;;;14.20;99.90;;;;;;5083841;28;19928;-81
2023/04/09 06:17:36;;;;;;;;;;;14.90;99.90;;;;;;5090794;28;19931;-81
2023/04/09 06:20:06;;;;;;;;;;;15.60;99.90;;;;;;5077404;28;19930;-80
2023/04/09 06:22:33;;;;;;;;;;;16.10;99.90;;;;;;5071895;28;20021;-79
2023/04/09 06:24:59;;;;;;;;;;;16.50;99.90;;;;;;5090635;28;19935;-80
2023/04/09 06:27:26;;;;;;;;;;;17.10;99.90;;;;;;5105988;28;19924;-80
2023/04/09 06:29:53;;;;;;;;;;;17.90;99.90;;;;;;5086594;28;19932;-80
2023/04/09 06:32:20;;;;;;;;;;;18.60;99.90;;;;;;5083621;28;20028;-80
2023/04/09 06:34:48;;;;;;;;;;;19.30;99.90;;;;;;5088658;28;19927;-79
2023/04/09 06:37:16;;;;;;;;;;;19.90;99.90;;;;;;5087817;28;19928;-80
2023/04/09 06:39:43;;;;;;;;;;;20.50;99.90;;;;;;5077090;28;19924;-81
2023/04/09 06:42:10;;;;;;;;;;;21.00;99.90;;;;;;5116040;28;19945;-81
2023/04/09 06:44:50;;;;;;;;;;;21.50;99.90;;;;;;5102990;28;19912;-81
2023/04/09 06:47:18;;;;;;;;;;;22.00;99.90;;;;;;5099338;28;19938;-81
2023/04/09 06:55:10;;;;;;;;;;;23.30;99.90;;;;;;5392574;22;20299;-74
2023/04/09 06:57:38;;;;;;;;;;;23.80;99.90;;;;;;5087903;28;19966;-75
2023/04/09 07:00:05;;;;;;;;;;;24.20;99.90;;;;;;5087341;28;19993;-75
2023/04/09 07:02:32;;;;;;;;;;;24.50;99.90;;;;;;5074978;28;20023;-76
2023/04/09 07:04:58;;;;;;;;;;;24.80;99.90;;;;;;5073061;28;19935;-75
2023/04/09 07:07:26;;;;;;;;;;;25.20;99.90;;;;;;5068873;28;20015;-76
2023/04/09 07:09:53;;;;;;;;;;;25.60;99.90;;;;;;5098277;22;20006;-81
2023/04/09 07:12:27;;;;;;;;;;;26.00;99.90;;;;;;5082044;28;19974;-80
2023/04/09 07:14:57;;;;;;;;;;;26.20;99.90;;;;;;5082142;28;19928;-81
2023/04/09 07:17:24;;;;;;;;;;;26.50;99.90;;;;;;5082642;28;19924;-81
2023/04/09 07:19:51;;;;;;;;;;;26.70;99.90;;;;;;5074815;28;19928;-81
2023/04/09 07:22:18;;;;;;;;;;;27.00;99.90;;;;;;5083035;28;19990;-81
2023/04/09 07:24:45;;;;;;;;;;;27.20;99.90;;;;;;5071011;28;20329;-78
2023/04/09 07:27:12;;;;;;;;;;;27.40;99.90;;;;;;5074957;28;19973;-76
2023/04/09 07:29:43;;;;;;;;;;;27.50;99.90;;;;;;5080214;28;19931;-77
2023/04/09 07:32:10;;;;;;;;;;;27.60;99.90;;;;;;5073795;28;20552;-77
2023/04/09 07:34:37;;;;;;;;;;;27.50;99.90;;;;;;5073041;28;19924;-77
2023/04/09 07:37:04;;;;;;;;;;;27.30;99.90;;;;;;5075057;28;20039;-78
2023/04/09 07:39:31;;;;;;;;;;;27.00;99.90;;;;;;5073747;28;19964;-76
2023/04/09 07:41:58;;;;;;;;;;;26.80;99.90;;;;;;5072516;28;19924;-77
2023/04/09 07:44:26;;;;;;;;;;;26.70;99.90;;;;;;5076449;28;19928;-78
2023/04/09 07:46:54;;;;;;;;;;;26.50;99.90;;;;;;5075317;28;19929;-76
2023/04/09 07:49:21;;;;;;;;;;;26.50;99.90;;;;;;5072353;28;19983;-77
2023/04/09 07:51:48;;;;;;;;;;;26.70;99.90;;;;;;5073327;28;19924;-77
2023/04/09 07:54:15;;;;;;;;;;;27.00;99.90;;;;;;5071763;28;19932;-77
2023/04/09 07:56:42;;;;;;;;;;;26.90;99.90;;;;;;5072938;28;20406;-77
2023/04/09 07:59:09;;;;;;;;;;;26.80;97.00;;;;;;5073331;28;19928;-77
2023/04/09 08:01:36;;;;;;;;;;;26.50;95.90;;;;;;5072406;28;20288;-76
2023/04/09 08:04:05;;;;;;;;;;;26.10;95.50;;;;;;5074140;28;19928;-77
2023/04/09 08:06:32;;;;;;;;;;;25.60;93.90;;;;;;5074157;28;19925;-77
2023/04/09 08:08:59;;;;;;;;;;;25.40;94.50;;;;;;5079101;28;19928;-80
2023/04/09 08:11:26;;;;;;;;;;;25.50;95.90;;;;;;5079428;28;19924;-79
2023/04/09 08:13:53;;;;;;;;;;;25.60;96.10;;;;;;5082107;28;19935;-80
2023/04/09 08:16:22;;;;;;;;;;;25.70;95.70;;;;;;5075766;28;19929;-77
2023/04/09 08:18:49;;;;;;;;;;;25.80;95.50;;;;;;5075995;28;19932;-77
2023/04/09 08:21:18;;;;;;;;;;;25.60;93.30;;;;;;5074729;28;19971;-78
2023/04/09 08:23:45;;;;;;;;;;;25.30;91.90;;;;;;5078549;28;19925;-77
2023/04/09 08:26:12;;;;;;;;;;;24.90;91.50;;;;;;5076146;28;19933;-78
2023/04/09 08:28:38;;;;;;;;;;;24.40;91.40;;;;;;5077385;28;19924;-78
2023/04/09 08:31:05;;;;;;;;;;;24.10;92.30;;;;;;5077421;28;19928;-78
2023/04/09 08:33:32;;;;;;;;;;;23.90;90.00;;;;;;5080576;28;19987;-78
2023/04/09 08:35:59;;;;;;;;;;;23.50;90.70;;;;;;5078458;28;19935;-78
2023/04/09 08:38:28;;;;;;;;;;;23.10;89.20;;;;;;5078509;28;20046;-78
2023/04/09 08:40:54;;;;;;;;;;;22.70;90.00;;;;;;5077832;28;19924;-77
2023/04/09 08:43:22;;;;;;;;;;;22.50;89.80;;;;;;5077012;28;19932;-78
2023/04/09 08:45:49;;;;;;;;;;;22.50;90.90;;;;;;5074985;28;19925;-77
2023/04/09 08:48:18;;;;;;;;;;;22.70;91.80;;;;;;5073550;28;20321;-80
2023/04/09 08:50:46;;;;;;;;;;;22.70;92.50;;;;;;5070091;28;19925;-80
2023/04/09 08:53:16;;;;;;;;;;;22.80;92.10;;;;;;5090458;28;19929;-83
2023/04/09 08:55:46;;;;;;;;;;;22.90;91.20;;;;;;5075766;28;20409;-80
2023/04/09 08:58:13;;;;;;;;;;;22.90;90.60;;;;;;5076707;28;19926;-81
2023/04/09 09:00:41;;;;;;;;;;;22.80;91.70;;;;;;5075042;28;19925;-77
2023/04/09 09:03:09;;;;;;;;;;;22.80;90.70;;;;;;5077307;28;19924;-79
2023/04/09 09:05:39;;;;;;;;;;;22.50;87.80;;;;;;5076758;28;20011;-81
2023/04/09 09:08:08;;;;;;;;;;;22.30;88.90;;;;;;5076538;28;19939;-78
2023/04/09 09:10:38;;;;;;;;;;;22.00;89.80;;;;;;5080748;28;19929;-79
2023/04/09 09:13:17;;;;;;;;;;;21.80;90.40;;;;;;5074380;28;19924;-80
2023/04/09 09:15:46;;;;;;;;;;;21.70;90.60;;;;;;5071955;28;19928;-78
2023/04/09 09:18:13;;;;;;;;;;;21.70;90.40;;;;;;5073395;28;19931;-80
2023/04/09 09:20:40;;;;;;;;;;;21.60;90.40;;;;;;5075631;28;19950;-81
2023/04/09 09:23:07;;;;;;;;;;;21.50;90.30;;;;;;5076613;28;20452;-82
2023/04/09 09:25:40;;;;;;;;;;;21.40;89.20;;;;;;5065942;28;19928;-80
2023/04/09 09:28:08;;;;;;;;;;;21.30;89.20;;;;;;5066935;28;20349;-84
2023/04/09 09:30:37;;;;;;;;;;;21.10;85.70;;;;;;5072428;28;19928;-80
2023/04/09 09:33:05;;;;;;;;;;;20.80;85.80;;;;;;5068185;28;19928;-82
2023/04/09 09:35:46;;;;;;;;;;;20.40;86.70;;;;;;5088637;28;20335;-77
2023/04/09 09:38:17;;;;;;;;;;;20.10;86.60;;;;;;5073369;28;20039;-79
2023/04/09 09:40:47;;;;;;;;;;;19.50;86.30;;;;;;5077377;28;20034;-79
2023/04/09 09:43:14;;;;;;;;;;;19.00;86.50;;;;;;5079279;28;21292;-79
2023/04/09 09:45:44;;;;;;;;;;;18.40;87.00;;;;;;5066656;28;19924;-79
2023/04/09 09:48:11;;;;;;;;;;;17.80;87.80;;;;;;5086817;28;19928;-78
2023/04/09 09:50:40;;;;;;;;;;;17.50;88.60;;;;;;5070854;28;19924;-79
2023/04/09 09:53:08;;;;;;;;;;;17.40;89.70;;;;;;5071305;28;19936;-77
2023/04/09 09:55:38;;;;;;;;;;;17.30;90.20;;;;;;5069610;28;19928;-78
2023/04/09 09:58:10;;;;;;;;;;;17.30;90.30;;;;;;5072257;28;19928;-78
2023/04/09 10:00:40;;;;;;;;;;;17.20;89.30;;;;;;5072337;28;19970;-78
2023/04/09 10:03:12;;;;;;;;;;;16.90;90.00;;;;;;5070352;28;19947;-78
2023/04/09 10:05:40;;;;;;;;;;;16.70;90.50;;;;;;5072980;28;19920;-79
2023/04/09 10:08:09;;;;;;;;;;;16.70;91.00;;;;;;5072201;28;19924;-79
2023/04/09 10:10:36;;;;;;;;;;;16.70;91.20;;;;;;5066444;28;19924;-79
2023/04/09 10:13:07;;;;;;;;;;;16.80;91.10;;;;;;5073727;28;19924;-79
2023/04/09 10:15:37;;;;;;;;;;;16.80;91.00;;;;;;5095047;28;20268;-80
2023/04/09 10:18:04;;;;;;;;;;;16.80;91.00;;;;;;5074741;28;20002;-79
2023/04/09 10:20:36;;;;;;;;;;;16.80;90.60;;;;;;5092116;28;19936;-80
2023/04/09 10:23:05;;;;;;;;;;;16.80;91.00;;;;;;5076815;28;19954;-77
2023/04/09 10:25:33;;;;;;;;;;;16.70;90.00;;;;;;5071735;28;19936;-79
2023/04/09 10:28:00;;;;;;;;;;;16.60;90.40;;;;;;5071138;28;20023;-78
2023/04/09 10:30:33;;;;;;;;;;;16.80;90.70;;;;;;5087215;28;19925;-78
2023/04/09 10:33:10;;;;;;;;;;;16.90;90.90;;;;;;5068766;28;20015;-78
2023/04/09 10:35:38;;;;;;;;;;;17.10;90.70;;;;;;5071036;28;20715;-79
2023/04/09 10:38:07;;;;;;;;;;;17.20;90.40;;;;;;5070981;28;19991;-79
2023/04/09 10:40:34;;;;;;;;;;;17.20;90.40;;;;;;5072480;28;19947;-79
2023/04/09 10:43:01;;;;;;;;;;;17.40;90.50;;;;;;5073406;28;19978;-79
2023/04/09 10:45:39;;;;;;;;;;;17.50;90.50;;;;;;5073432;28;19924;-79
2023/04/09 10:48:06;;;;;;;;;;;17.60;90.80;;;;;;5074421;28;19929;-80
2023/04/09 10:50:35;;;;;;;;;;;17.70;90.30;;;;;;5074112;28;19929;-79
2023/04/09 10:53:03;;;;;;;;;;;17.70;89.80;;;;;;5075691;28;19982;-79
2023/04/09 10:55:32;;;;;;;;;;;17.60;90.00;;;;;;5074274;28;19954;-79
2023/04/09 10:57:59;;;;;;;;;;;17.70;90.40;;;;;;5079653;28;19924;-80
2023/04/09 11:00:26;;;;;;;;;;;18.00;90.80;;;;;;5073809;28;19935;-79
2023/04/09 11:03:06;;;;;;;;;;;17.90;88.80;;;;;;5074458;28;19989;-79
2023/04/09 11:05:34;;;;;;;;;;;17.70;88.70;;;;;;5073313;28;19959;-80
2023/04/09 11:08:07;;;;;;;;;;;17.40;88.20;;;;;;5073152;28;19924;-79
2023/04/09 11:10:33;;;;;;;;;;;17.50;90.00;;;;;;5068126;28;19969;-78
2023/04/09 11:13:01;;;;;;;;;;;17.80;90.40;;;;;;5067983;28;20042;-77
2023/04/09 11:15:28;;;;;;;;;;;18.10;90.50;;;;;;5068865;28;19929;-78
2023/04/09 11:17:56;;;;;;;;;;;18.50;90.60;;;;;;5067862;28;19974;-78
2023/04/09 11:20:23;;;;;;;;;;;18.80;90.40;;;;;;5069182;28;19924;-78
2023/04/09 11:22:51;;;;;;;;;;;19.00;89.80;;;;;;5068495;28;19928;-77
2023/04/09 11:25:24;;;;;;;;;;;19.00;90.20;;;;;;5068364;28;20271;-77
2023/04/09 11:27:50;;;;;;;;;;;19.00;90.10;;;;;;5067728;28;19977;-78
2023/04/09 11:30:17;;;;;;;;;;;19.10;90.20;;;;;;5050636;28;19925;-78
2023/04/09 11:32:45;;;;;;;;;;;19.10;87.50;;;;;;5055544;28;19948;-78
2023/04/09 11:35:13;;;;;;;;;;;18.90;88.70;;;;;;5064332;28;19947;-78
2023/04/09 11:37:40;;;;;;;;;;;18.80;89.00;;;;;;5075399;28;19924;-78
2023/04/09 11:40:07;;;;;;;;;;;18.60;88.70;;;;;;5074791;28;20002;-79
2023/04/09 11:42:36;;;;;;;;;;;18.70;90.10;;;;;;5075621;28;19935;-77
2023/04/09 11:45:23;;;;;;;;;;;19.00;90.40;;;;;;5073027;28;19929;-78
2023/04/09 11:47:51;;;;;;;;;;;19.50;90.60;;;;;;5072711;28;19928;-78
2023/04/09 11:50:19;;;;;;;;;;;19.90;88.60;;;;;;5074451;28;19947;-78
2023/04/09 11:52:46;;;;;;;;;;;19.90;88.70;;;;;;5074360;28;19932;-79
2023/04/09 11:58:46;;;;;;;;;;;19.20;86.00;;;;;;5075515;28;20438;-78
2023/04/09 12:01:14;;;;;;;;;;;18.60;86.50;;;;;;5074819;28;19993;-79
2023/04/09 12:03:41;;;;;;;;;;;18.40;87.60;;;;;;5057496;28;19925;-79
2023/04/09 12:06:08;;;;;;;;;;;18.30;88.00;;;;;;5065557;28;19932;-79
2023/04/09 12:08:36;;;;;;;;;;;18.10;87.20;;;;;;5074168;28;19940;-79
2023/04/09 12:11:10;;;;;;;;;;;17.90;87.40;;;;;;5072885;28;20229;-79
2023/04/09 12:13:41;;;;;;;;;;;17.80;88.50;;;;;;5074615;28;19939;-79
2023/04/09 12:16:09;;;;;;;;;;;17.90;88.60;;;;;;5066167;28;19924;-79
2023/04/09 12:18:37;;;;;;;;;;;17.90;88.90;;;;;;5075005;28;19935;-78
2023/04/09 12:21:04;;;;;;;;;;;17.90;88.30;;;;;;5076159;28;19935;-79
2023/04/09 12:23:32;;;;;;;;;;;17.90;88.10;;;;;;5073809;28;19935;-79
2023/04/09 12:25:59;;;;;;;;;;;17.80;89.10;;;;;;5073913;28;19924;-79
2023/04/09 12:28:26;;;;;;;;;;;18.20;90.00;;;;;;5092664;28;19924;-78
2023/04/09 12:30:53;;;;;;;;;;;18.70;90.30;;;;;;5070297;28;19971;-78
2023/04/09 12:33:22;;;;;;;;;;;19.20;90.00;;;;;;5071567;28;20430;-77
2023/04/09 12:35:48;;;;;;;;;;;19.70;88.60;;;;;;5070229;28;19954;-78
2023/04/09 12:38:15;;;;;;;;;;;20.00;86.90;;;;;;5071387;28;19932;-77
2023/04/09 12:40:42;;;;;;;;;;;19.70;85.50;;;;;;5075891;28;19928;-79
2023/04/09 12:43:09;;;;;;;;;;;19.20;85.00;;;;;;5080796;28;20382;-79
2023/04/09 12:45:36;;;;;;;;;;;18.70;85.40;;;;;;5076706;28;19932;-80
2023/04/09 12:48:03;;;;;;;;;;;18.50;87.10;;;;;;5076400;28;19935;-79
2023/04/09 12:50:32;;;;;;;;;;;18.60;89.20;;;;;;5075027;28;19993;-77
2023/04/09 12:52:59;;;;;;;;;;;18.90;89.90;;;;;;5071046;28;19931;-78
2023/04/09 12:55:26;;;;;;;;;;;19.10;87.70;;;;;;5070070;28;19955;-77
2023/04/09 12:57:53;;;;;;;;;;;19.50;87.90;;;;;;5072278;28;19928;-77
2023/04/09 13:00:20;;;;;;;;;;;19.90;89.10;;;;;;5087437;28;19928;-78
2023/04/09 13:02:47;;;;;;;;;;;20.10;85.30;;;;;;5070636;28;19936;-77
2023/04/09 13:05:14;;;;;;;;;;;20.10;85.10;;;;;;5072522;28;19940;-78
2023/04/09 13:07:42;;;;;;;;;;;20.00;85.30;;;;;;5069921;28;19924;-77
2023/04/09 13:10:12;;;;;;;;;;;19.70;84.20;;;;;;5071785;28;20305;-78
2023/04/09 13:12:39;;;;;;;;;;;19.30;86.10;;;;;;5069750;28;20002;-78
2023/04/09 13:15:06;;;;;;;;;;;19.00;85.50;;;;;;5069767;28;19928;-77
2023/04/09 13:17:33;;;;;;;;;;;18.70;85.90;;;;;;5070345;28;19924;-78
2023/04/09 13:20:00;;;;;;;;;;;18.50;87.40;;;;;;5069583;28;19985;-77
2023/04/09 13:22:27;;;;;;;;;;;18.40;86.40;;;;;;5069632;28;19974;-77
2023/04/09 13:24:55;;;;;;;;;;;18.00;86.90;;;;;;5070377;28;20458;-79
2023/04/09 13:27:22;;;;;;;;;;;17.70;86.30;;;;;;5071537;28;20564;-77
2023/04/09 13:29:49;;;;;;;;;;;17.50;87.80;;;;;;5070444;28;19924;-77
2023/04/09 13:32:17;;;;;;;;;;;17.40;87.70;;;;;;5071987;28;19929;-78
2023/04/09 13:34:44;;;;;;;;;;;17.40;88.80;;;;;;5074952;28;19928;-81
2023/04/09 13:37:11;;;;;;;;;;;17.60;89.00;;;;;;5065096;28;20342;-80
2023/04/09 13:39:38;;;;;;;;;;;17.90;90.30;;;;;;5072269;28;19936;-80
2023/04/09 13:42:06;;;;;;;;;;;18.30;88.30;;;;;;5066708;28;20229;-78
2023/04/09 13:44:34;;;;;;;;;;;18.40;87.20;;;;;;5071435;28;20061;-78
2023/04/09 13:47:01;;;;;;;;;;;18.30;86.80;;;;;;5055327;28;19929;-83
2023/04/09 13:49:29;;;;;;;;;;;18.10;87.40;;;;;;5080182;28;20359;-81
2023/04/09 13:51:56;;;;;;;;;;;18.00;87.00;;;;;;5071458;28;19939;-81
2023/04/09 13:54:23;;;;;;;;;;;17.80;87.10;;;;;;5074725;28;19929;-82
2023/04/09 13:56:50;;;;;;;;;;;17.90;88.00;;;;;;5071312;28;19924;-80
2023/04/09 13:59:20;;;;;;;;;;;18.20;89.80;;;;;;5076385;28;19999;-82
2023/04/09 14:01:47;;;;;;;;;;;18.50;87.90;;;;;;5078074;28;20229;-82
2023/04/09 14:04:14;;;;;;;;;;;18.80;88.90;;;;;;5074444;28;19933;-78
2023/04/09 14:06:41;;;;;;;;;;;18.90;88.40;;;;;;5072526;28;19928;-78
2023/04/09 14:09:09;;;;;;;;;;;19.00;87.40;;;;;;5073471;28;20644;-77
2023/04/09 14:11:36;;;;;;;;;;;19.00;87.30;;;;;;5074248;28;19944;-76
2023/04/09 14:14:03;;;;;;;;;;;19.10;88.10;;;;;;5074385;28;19931;-78
2023/04/09 14:16:31;;;;;;;;;;;19.20;88.00;;;;;;5072257;28;20299;-77
2023/04/09 14:18:58;;;;;;;;;;;19.20;86.40;;;;;;5070067;28;19924;-76
2023/04/09 14:21:25;;;;;;;;;;;19.10;87.20;;;;;;5070696;28;19975;-77
2023/04/09 14:23:52;;;;;;;;;;;19.30;86.90;;;;;;5070373;28;19924;-77
2023/04/09 14:26:19;;;;;;;;;;;19.50;87.60;;;;;;5071272;28;20005;-76
2023/04/09 14:28:46;;;;;;;;;;;19.60;86.10;;;;;;5069770;28;20399;-77
2023/04/09 14:31:13;;;;;;;;;;;19.60;85.10;;;;;;5068917;28;20442;-77
2023/04/09 14:33:42;;;;;;;;;;;19.20;84.00;;;;;;5069872;28;20027;-77
2023/04/09 14:36:09;;;;;;;;;;;18.70;84.30;;;;;;5072371;28;19928;-78
2023/04/09 14:38:37;;;;;;;;;;;18.20;84.50;;;;;;5074698;28;19924;-78